sensor_id;sensor_type;location;lat;lon;timestamp;pressure;altitude;pressure_sealevel;temperature;humidity
65173;BME280;51758;52.218;5.172;2022-11-03T00:01:58;101226.81;;;11.10;100.00
65173;BME280;51758;52.218;5.172;2022-11-03T00:04:26;101225.69;;;11.04;100.00
65173;BME280;51758;52.218;5.172;2022-11-03T00:06:54;101220.78;;;11.09;100.00
65173;BME280;51758;52.218;5.172;2022-11-03T00:09:23;101214.25;;;11.05;100.00
65173;BME280;51758;52.218;5.172;2022-11-03T00:11:52;101208.06;;;11.06;100.00
65173;BME280;51758;52.218;5.172;2022-11-03T00:14:21;101204.78;;;11.04;100.00
65173;BME280;51758;52.218;5.172;2022-11-03T00:16:48;101185.56;;;10.97;100.00
65173;BME280;51758;52.218;5.172;2022-11-03T00:19:16;101184.63;;;10.90;100.00
65173;BME280;51758;52.218;5.172;2022-11-03T00:21:44;101185.75;;;10.96;100.00
65173;BME280;51758;52.218;5.172;2022-11-03T00:24:12;101184.94;;;10.95;100.00
65173;BME280;51758;52.218;5.172;2022-11-03T00:26:40;101182.66;;;10.92;100.00
65173;BME280;51758;52.218;5.172;2022-11-03T00:29:09;101159.25;;;10.76;100.00
65173;BME280;51758;52.218;5.172;2022-11-03T00:31:40;101187.44;;;10.89;100.00
65173;BME280;51758;52.218;5.172;2022-11-03T00:34:09;101177.47;;;10.84;100.00
65173;BME280;51758;52.218;5.172;2022-11-03T00:36:38;101173.06;;;10.85;100.00
65173;BME280;51758;52.218;5.172;2022-11-03T00:39:06;101171.63;;;10.82;100.00
65173;BME280;51758;52.218;5.172;2022-11-03T00:41:34;101171.44;;;10.84;100.00
65173;BME280;51758;52.218;5.172;2022-11-03T00:44:02;101182.22;;;10.81;100.00
65173;BME280;51758;52.218;5.172;2022-11-03T00:46:29;101183.75;;;10.75;100.00
65173;BME280;51758;52.218;5.172;2022-11-03T00:49:02;101178.97;;;10.78;100.00
65173;BME280;51758;52.218;5.172;2022-11-03T00:51:31;101172.31;;;10.76;100.00
65173;BME280;51758;52.218;5.172;2022-11-03T00:54:01;101170.84;;;10.73;100.00
65173;BME280;51758;52.218;5.172;2022-11-03T00:56:31;101162.38;;;10.71;100.00
65173;BME280;51758;52.218;5.172;2022-11-03T00:59:00;101166.94;;;10.69;100.00
65173;BME280;51758;52.218;5.172;2022-11-03T01:01:30;101163.69;;;10.67;100.00
65173;BME280;51758;52.218;5.172;2022-11-03T01:03:58;101172.66;;;10.73;100.00
65173;BME280;51758;52.218;5.172;2022-11-03T01:06:45;101167.41;;;10.73;100.00
65173;BME280;51758;52.218;5.172;2022-11-03T01:09:16;101158.78;;;10.72;100.00
65173;BME280;51758;52.218;5.172;2022-11-03T01:11:55;101149.00;;;10.66;100.00
65173;BME280;51758;52.218;5.172;2022-11-03T01:14:25;101153.88;;;10.69;100.00
65173;BME280;51758;52.218;5.172;2022-11-03T01:16:53;101148.50;;;10.71;100.00
65173;BME280;51758;52.218;5.172;2022-11-03T01:19:20;101148.50;;;10.71;100.00
65173;BME280;51758;52.218;5.172;2022-11-03T01:21:50;101146.38;;;10.74;100.00
65173;BME280;51758;52.218;5.172;2022-11-03T01:24:18;101133.31;;;10.74;100.00
65173;BME280;51758;52.218;5.172;2022-11-03T01:26:46;101140.50;;;10.72;100.00
65173;BME280;51758;52.218;5.172;2022-11-03T01:29:14;101138.53;;;10.74;100.00
65173;BME280;51758;52.218;5.172;2022-11-03T01:31:41;101144.84;;;10.80;100.00
65173;BME280;51758;52.218;5.172;2022-11-03T01:34:12;101132.50;;;10.74;100.00
65173;BME280;51758;52.218;5.172;2022-11-03T01:36:41;101132.13;;;10.77;100.00
65173;BME280;51758;52.218;5.172;2022-11-03T01:39:11;101129.88;;;10.74;100.00
65173;BME280;51758;52.218;5.172;2022-11-03T01:41:40;101107.53;;;10.71;100.00
65173;BME280;51758;52.218;5.172;2022-11-03T01:44:29;101122.88;;;10.74;100.00
65173;BME280;51758;52.218;5.172;2022-11-03T01:47:05;101098.28;;;10.61;100.00
65173;BME280;51758;52.218;5.172;2022-11-03T01:49:39;101112.91;;;10.70;100.00
65173;BME280;51758;52.218;5.172;2022-11-03T01:52:12;101104.03;;;10.79;100.00
65173;BME280;51758;52.218;5.172;2022-11-03T01:54:44;101103.47;;;10.69;100.00
65173;BME280;51758;52.218;5.172;2022-11-03T01:57:16;101097.09;;;10.71;100.00
65173;BME280;51758;52.218;5.172;2022-11-03T01:59:46;101099.34;;;10.74;100.00
65173;BME280;51758;52.218;5.172;2022-11-03T02:02:14;101087.13;;;10.75;100.00
65173;BME280;51758;52.218;5.172;2022-11-03T02:04:42;101082.06;;;10.73;100.00
65173;BME280;51758;52.218;5.172;2022-11-03T02:07:14;101077.50;;;10.67;100.00
65173;BME280;51758;52.218;5.172;2022-11-03T02:09:45;101074.91;;;10.67;100.00
65173;BME280;51758;52.218;5.172;2022-11-03T02:12:13;101073.75;;;10.70;100.00
65173;BME280;51758;52.218;5.172;2022-11-03T02:14:44;101078.63;;;10.73;100.00
65173;BME280;51758;52.218;5.172;2022-11-03T02:17:15;101072.72;;;10.79;100.00
65173;BME280;51758;52.218;5.172;2022-11-03T02:19:46;101061.63;;;10.77;100.00
65173;BME280;51758;52.218;5.172;2022-11-03T02:25:34;101057.84;;;10.80;100.00
65173;BME280;51758;52.218;5.172;2022-11-03T02:28:02;101058.03;;;10.78;100.00
65173;BME280;51758;52.218;5.172;2022-11-03T02:30:36;101058.03;;;10.78;100.00
65173;BME280;51758;52.218;5.172;2022-11-03T02:33:11;101051.53;;;10.74;100.00
65173;BME280;51758;52.218;5.172;2022-11-03T02:35:44;101046.59;;;10.79;100.00
65173;BME280;51758;52.218;5.172;2022-11-03T02:38:16;101047.16;;;10.89;100.00
65173;BME280;51758;52.218;5.172;2022-11-03T02:40:49;101027.97;;;10.82;100.00
65173;BME280;51758;52.218;5.172;2022-11-03T02:43:21;101031.88;;;10.86;100.00
65173;BME280;51758;52.218;5.172;2022-11-03T02:45:51;101037.72;;;10.88;100.00
65173;BME280;51758;52.218;5.172;2022-11-03T02:48:19;101014.56;;;10.85;100.00
65173;BME280;51758;52.218;5.172;2022-11-03T02:50:47;101015.81;;;10.89;100.00
65173;BME280;51758;52.218;5.172;2022-11-03T02:53:15;101014.22;;;10.88;100.00
65173;BME280;51758;52.218;5.172;2022-11-03T02:55:50;101002.75;;;10.89;100.00
65173;BME280;51758;52.218;5.172;2022-11-03T02:58:26;101002.75;;;10.89;100.00
65173;BME280;51758;52.218;5.172;2022-11-03T03:00:59;100998.91;;;10.85;100.00
65173;BME280;51758;52.218;5.172;2022-11-03T03:03:31;100998.72;;;10.87;100.00
65173;BME280;51758;52.218;5.172;2022-11-03T03:06:03;100996.19;;;10.93;100.00
65173;BME280;51758;52.218;5.172;2022-11-03T03:08:34;101001.78;;;10.90;100.00
65173;BME280;51758;52.218;5.172;2022-11-03T03:11:06;100991.97;;;10.92;100.00
65173;BME280;51758;52.218;5.172;2022-11-03T03:13:34;100983.31;;;10.92;100.00
65173;BME280;51758;52.218;5.172;2022-11-03T03:16:09;100981.00;;;10.97;100.00
65173;BME280;51758;52.218;5.172;2022-11-03T03:18:46;100972.19;;;10.98;100.00
65173;BME280;51758;52.218;5.172;2022-11-03T03:21:20;100962.41;;;10.92;100.00
65173;BME280;51758;52.218;5.172;2022-11-03T03:23:52;100954.22;;;10.95;100.00
65173;BME280;51758;52.218;5.172;2022-11-03T03:26:27;100966.03;;;11.05;100.00
65173;BME280;51758;52.218;5.172;2022-11-03T03:28:57;100948.09;;;11.02;100.00
65173;BME280;51758;52.218;5.172;2022-11-03T03:31:28;100952.19;;;11.05;100.00
65173;BME280;51758;52.218;5.172;2022-11-03T03:33:59;100960.81;;;11.05;100.00
65173;BME280;51758;52.218;5.172;2022-11-03T03:36:43;100943.16;;;11.07;100.00
65173;BME280;51758;52.218;5.172;2022-11-03T03:39:13;100943.00;;;11.09;100.00
65173;BME280;51758;52.218;5.172;2022-11-03T03:41:43;100940.22;;;11.10;100.00
65173;BME280;51758;52.218;5.172;2022-11-03T03:44:12;100935.88;;;11.18;100.00
65173;BME280;51758;52.218;5.172;2022-11-03T03:46:46;100914.34;;;11.16;100.00
65173;BME280;51758;52.218;5.172;2022-11-03T03:49:16;100931.63;;;11.17;100.00
65173;BME280;51758;52.218;5.172;2022-11-03T03:51:44;100919.13;;;11.12;100.00
65173;BME280;51758;52.218;5.172;2022-11-03T03:54:13;100916.59;;;11.19;100.00
65173;BME280;51758;52.218;5.172;2022-11-03T03:56:45;100918.22;;;11.20;100.00
65173;BME280;51758;52.218;5.172;2022-11-03T03:59:15;100912.81;;;11.21;100.00
65173;BME280;51758;52.218;5.172;2022-11-03T04:01:42;100918.69;;;11.23;100.00
65173;BME280;51758;52.218;5.172;2022-11-03T04:04:10;100923.72;;;11.25;100.00
65173;BME280;51758;52.218;5.172;2022-11-03T04:06:38;100922.09;;;11.24;100.00
65173;BME280;51758;52.218;5.172;2022-11-03T04:09:05;100915.34;;;11.29;100.00
65173;BME280;51758;52.218;5.172;2022-11-03T04:11:33;100910.75;;;11.31;100.00
65173;BME280;51758;52.218;5.172;2022-11-03T04:14:20;100917.25;;;11.35;100.00
65173;BME280;51758;52.218;5.172;2022-11-03T04:17:15;100908.22;;;11.38;100.00
65173;BME280;51758;52.218;5.172;2022-11-03T04:20:03;100900.75;;;11.35;100.00
65173;BME280;51758;52.218;5.172;2022-11-03T04:22:48;100904.34;;;11.34;100.00
65173;BME280;51758;52.218;5.172;2022-11-03T04:25:15;100898.13;;;11.35;100.00
65173;BME280;51758;52.218;5.172;2022-11-03T04:27:43;100896.16;;;11.37;100.00
65173;BME280;51758;52.218;5.172;2022-11-03T04:30:15;100879.72;;;11.28;100.00
65173;BME280;51758;52.218;5.172;2022-11-03T04:32:44;100886.31;;;11.39;100.00
65173;BME280;51758;52.218;5.172;2022-11-03T04:35:14;100880.47;;;11.37;100.00
65173;BME280;51758;52.218;5.172;2022-11-03T04:37:43;100888.94;;;11.39;100.00
65173;BME280;51758;52.218;5.172;2022-11-03T04:40:15;100880.72;;;11.42;100.00
65173;BME280;51758;52.218;5.172;2022-11-03T04:42:44;100877.41;;;11.33;100.00
65173;BME280;51758;52.218;5.172;2022-11-03T04:45:27;100874.16;;;11.31;100.00
65173;BME280;51758;52.218;5.172;2022-11-03T04:47:57;100880.19;;;11.32;100.00
65173;BME280;51758;52.218;5.172;2022-11-03T04:50:25;100871.88;;;11.28;100.00
65173;BME280;51758;52.218;5.172;2022-11-03T04:52:54;100877.75;;;11.30;100.00
65173;BME280;51758;52.218;5.172;2022-11-03T04:55:22;100874.59;;;11.35;100.00
65173;BME280;51758;52.218;5.172;2022-11-03T04:57:54;100870.53;;;11.32;100.00
65173;BME280;51758;52.218;5.172;2022-11-03T05:00:24;100867.94;;;11.32;100.00
65173;BME280;51758;52.218;5.172;2022-11-03T05:02:52;100869.09;;;11.30;100.00
65173;BME280;51758;52.218;5.172;2022-11-03T05:05:24;100862.69;;;11.32;100.00
65173;BME280;51758;52.218;5.172;2022-11-03T05:07:53;100862.88;;;11.31;100.00
65173;BME280;51758;52.218;5.172;2022-11-03T05:10:24;100857.19;;;11.27;100.00
65173;BME280;51758;52.218;5.172;2022-11-03T05:12:53;100849.34;;;11.27;100.00
65173;BME280;51758;52.218;5.172;2022-11-03T05:15:33;100846.03;;;11.33;100.00
65173;BME280;51758;52.218;5.172;2022-11-03T05:18:10;100846.22;;;11.32;100.00
65173;BME280;51758;52.218;5.172;2022-11-03T05:20:45;100831.53;;;11.31;100.00
65173;BME280;51758;52.218;5.172;2022-11-03T05:23:14;100828.72;;;11.32;100.00
65173;BME280;51758;52.218;5.172;2022-11-03T05:25:43;100820.44;;;11.29;100.00
65173;BME280;51758;52.218;5.172;2022-11-03T05:28:19;100829.34;;;11.34;100.00
65173;BME280;51758;52.218;5.172;2022-11-03T05:30:49;100818.91;;;11.34;100.00
65173;BME280;51758;52.218;5.172;2022-11-03T05:33:21;100827.44;;;11.43;100.00
65173;BME280;51758;52.218;5.172;2022-11-03T05:35:49;100822.22;;;11.43;100.00
65173;BME280;51758;52.218;5.172;2022-11-03T05:38:18;100817.63;;;11.45;100.00
65173;BME280;51758;52.218;5.172;2022-11-03T05:40:49;100813.38;;;11.44;100.00
65173;BME280;51758;52.218;5.172;2022-11-03T05:43:17;100803.91;;;11.43;100.00
65173;BME280;51758;52.218;5.172;2022-11-03T05:45:45;100805.34;;;11.45;100.00
65173;BME280;51758;52.218;5.172;2022-11-03T05:48:19;100801.13;;;11.44;100.00
65173;BME280;51758;52.218;5.172;2022-11-03T05:50:49;100805.34;;;11.45;100.00
65173;BME280;51758;52.218;5.172;2022-11-03T05:53:27;100801.47;;;11.41;100.00
65173;BME280;51758;52.218;5.172;2022-11-03T05:55:58;100794.44;;;11.42;100.00
65173;BME280;51758;52.218;5.172;2022-11-03T05:58:29;100784.00;;;11.42;100.00
65173;BME280;51758;52.218;5.172;2022-11-03T06:00:59;100794.44;;;11.42;100.00
65173;BME280;51758;52.218;5.172;2022-11-03T06:03:32;100784.09;;;11.48;100.00
65173;BME280;51758;52.218;5.172;2022-11-03T06:06:01;100785.25;;;11.46;100.00
65173;BME280;51758;52.218;5.172;2022-11-03T06:08:32;100777.69;;;11.51;100.00
65173;BME280;51758;52.218;5.172;2022-11-03T06:11:09;100774.50;;;11.56;100.00
65173;BME280;51758;52.218;5.172;2022-11-03T06:13:41;100771.47;;;11.52;100.00
65173;BME280;51758;52.218;5.172;2022-11-03T06:16:30;100776.47;;;11.54;100.00
65173;BME280;51758;52.218;5.172;2022-11-03T06:19:06;100764.66;;;11.58;100.00
65173;BME280;51758;52.218;5.172;2022-11-03T06:21:39;100764.03;;;11.56;100.00
65173;BME280;51758;52.218;5.172;2022-11-03T06:24:13;100761.22;;;11.57;100.00
65173;BME280;51758;52.218;5.172;2022-11-03T06:26:41;100761.06;;;11.59;100.00
65173;BME280;51758;52.218;5.172;2022-11-03T06:29:13;100751.78;;;11.56;100.00
65173;BME280;51758;52.218;5.172;2022-11-03T06:31:42;100737.34;;;11.60;100.00
65173;BME280;51758;52.218;5.172;2022-11-03T06:34:24;100744.38;;;11.60;100.00
65173;BME280;51758;52.218;5.172;2022-11-03T06:36:55;100742.56;;;11.60;100.00
65173;BME280;51758;52.218;5.172;2022-11-03T06:39:23;100740.94;;;11.59;100.00
65173;BME280;51758;52.218;5.172;2022-11-03T06:41:51;100728.81;;;11.52;100.00
65173;BME280;51758;52.218;5.172;2022-11-03T06:44:23;100731.91;;;11.62;100.00
65173;BME280;51758;52.218;5.172;2022-11-03T06:46:53;100727.59;;;11.54;100.00
65173;BME280;51758;52.218;5.172;2022-11-03T06:49:27;100731.91;;;11.62;100.00
65173;BME280;51758;52.218;5.172;2022-11-03T06:51:56;100731.56;;;11.65;100.00
65173;BME280;51758;52.218;5.172;2022-11-03T06:54:25;100725.31;;;11.66;100.00
65173;BME280;51758;52.218;5.172;2022-11-03T06:56:52;100722.91;;;11.64;100.00
65173;BME280;51758;52.218;5.172;2022-11-03T06:59:20;100723.50;;;11.66;100.00
65173;BME280;51758;52.218;5.172;2022-11-03T07:01:52;100689.81;;;11.57;100.00
65173;BME280;51758;52.218;5.172;2022-11-03T07:04:21;100713.09;;;11.73;100.00
65173;BME280;51758;52.218;5.172;2022-11-03T07:06:51;100714.97;;;11.79;100.00
65173;BME280;51758;52.218;5.172;2022-11-03T07:09:21;100719.63;;;11.77;100.00
65173;BME280;51758;52.218;5.172;2022-11-03T07:11:52;100718.88;;;11.68;100.00
65173;BME280;51758;52.218;5.172;2022-11-03T07:14:24;100725.25;;;11.80;100.00
65173;BME280;51758;52.218;5.172;2022-11-03T07:16:54;100726.88;;;11.81;100.00
65173;BME280;51758;52.218;5.172;2022-11-03T07:19:24;100715.69;;;11.88;100.00
65173;BME280;51758;52.218;5.172;2022-11-03T07:21:56;100713.69;;;11.90;100.00
65173;BME280;51758;52.218;5.172;2022-11-03T07:24:27;100722.34;;;11.90;100.00
65173;BME280;51758;52.218;5.172;2022-11-03T07:27:01;100717.97;;;11.97;100.00
65173;BME280;51758;52.218;5.172;2022-11-03T07:29:32;100714.53;;;11.97;100.00
65173;BME280;51758;52.218;5.172;2022-11-03T07:32:00;100722.75;;;11.94;100.00
65173;BME280;51758;52.218;5.172;2022-11-03T07:34:31;100717.53;;;11.94;100.00
65173;BME280;51758;52.218;5.172;2022-11-03T07:37:01;100707.53;;;12.04;100.00
65173;BME280;51758;52.218;5.172;2022-11-03T07:39:33;100709.78;;;12.07;100.00
65173;BME280;51758;52.218;5.172;2022-11-03T07:42:10;100696.47;;;12.02;100.00
65173;BME280;51758;52.218;5.172;2022-11-03T07:44:39;100711.78;;;12.05;100.00
65173;BME280;51758;52.218;5.172;2022-11-03T07:47:11;100706.53;;;12.05;100.00
65173;BME280;51758;52.218;5.172;2022-11-03T07:49:40;100709.59;;;12.08;100.00
65173;BME280;51758;52.218;5.172;2022-11-03T07:52:12;100719.09;;;12.16;100.00
65173;BME280;51758;52.218;5.172;2022-11-03T07:54:41;100710.03;;;12.12;100.00
65173;BME280;51758;52.218;5.172;2022-11-03T07:57:13;100706.41;;;12.13;100.00
65173;BME280;51758;52.218;5.172;2022-11-03T07:59:44;100703.59;;;12.14;100.00
65173;BME280;51758;52.218;5.172;2022-11-03T08:02:23;100697.78;;;12.19;100.00
65173;BME280;51758;52.218;5.172;2022-11-03T08:04:52;100694.16;;;12.20;100.00
65173;BME280;51758;52.218;5.172;2022-11-03T08:07:21;100691.72;;;12.18;100.00
65173;BME280;51758;52.218;5.172;2022-11-03T08:09:49;100656.59;;;12.00;100.00
65173;BME280;51758;52.218;5.172;2022-11-03T08:12:16;100686.75;;;12.24;100.00
65173;BME280;51758;52.218;5.172;2022-11-03T08:14:44;100672.47;;;12.26;100.00
65173;BME280;51758;52.218;5.172;2022-11-03T08:17:11;100685.78;;;12.31;100.00
65173;BME280;51758;52.218;5.172;2022-11-03T08:19:39;100677.91;;;12.31;100.00
65173;BME280;51758;52.218;5.172;2022-11-03T08:22:07;100683.19;;;12.38;100.00
65173;BME280;51758;52.218;5.172;2022-11-03T08:24:36;100669.50;;;12.36;100.00
65173;BME280;51758;52.218;5.172;2022-11-03T08:27:04;100664.63;;;12.33;100.00
65173;BME280;51758;52.218;5.172;2022-11-03T08:29:32;100667.13;;;12.41;100.00
65173;BME280;51758;52.218;5.172;2022-11-03T08:31:59;100656.22;;;12.44;100.00
65173;BME280;51758;52.218;5.172;2022-11-03T08:34:27;100642.56;;;12.48;100.00
65173;BME280;51758;52.218;5.172;2022-11-03T08:36:55;100644.81;;;12.51;100.00
65173;BME280;51758;52.218;5.172;2022-11-03T08:39:23;100636.53;;;12.54;100.00
65173;BME280;51758;52.218;5.172;2022-11-03T08:41:52;100633.34;;;12.59;100.00
65173;BME280;51758;52.218;5.172;2022-11-03T08:44:19;100627.28;;;12.59;100.00
65173;BME280;51758;52.218;5.172;2022-11-03T08:46:47;100616.44;;;12.62;100.00
65173;BME280;51758;52.218;5.172;2022-11-03T08:49:14;100622.91;;;12.66;100.00
65173;BME280;51758;52.218;5.172;2022-11-03T08:51:42;100617.44;;;12.67;100.00
65173;BME280;51758;52.218;5.172;2022-11-03T08:54:10;100601.72;;;12.67;100.00
65173;BME280;51758;52.218;5.172;2022-11-03T08:56:38;100604.19;;;12.75;100.00
65173;BME280;51758;52.218;5.172;2022-11-03T08:59:07;100609.44;;;12.75;100.00
65173;BME280;51758;52.218;5.172;2022-11-03T09:01:34;100601.56;;;12.75;100.00
65173;BME280;51758;52.218;5.172;2022-11-03T09:04:02;100583.44;;;12.74;100.00
65173;BME280;51758;52.218;5.172;2022-11-03T09:06:30;100589.47;;;12.81;100.00
65173;BME280;51758;52.218;5.172;2022-11-03T09:08:57;100559.63;;;12.62;100.00
65173;BME280;51758;52.218;5.172;2022-11-03T09:11:45;100578.63;;;12.90;100.00
65173;BME280;51758;52.218;5.172;2022-11-03T09:14:14;100568.75;;;12.99;100.00
65173;BME280;51758;52.218;5.172;2022-11-03T09:16:42;100567.53;;;12.95;100.00
65173;BME280;51758;52.218;5.172;2022-11-03T09:19:10;100550.00;;;12.89;100.00
65173;BME280;51758;52.218;5.172;2022-11-03T09:21:37;100559.69;;;12.95;100.00
65173;BME280;51758;52.218;5.172;2022-11-03T09:24:05;100538.91;;;12.87;100.00
65173;BME280;51758;52.218;5.172;2022-11-03T09:26:33;100543.56;;;12.91;100.00
65173;BME280;51758;52.218;5.172;2022-11-03T09:29:01;100536.91;;;13.02;100.00
65173;BME280;51758;52.218;5.172;2022-11-03T09:31:30;100532.69;;;13.01;100.00
65173;BME280;51758;52.218;5.172;2022-11-03T09:33:57;100522.78;;;12.97;100.00
65173;BME280;51758;52.218;5.172;2022-11-03T09:36:25;100522.59;;;12.91;100.00
65173;BME280;51758;52.218;5.172;2022-11-03T09:38:53;100515.34;;;13.00;100.00
65173;BME280;51758;52.218;5.172;2022-11-03T09:41:20;100519.38;;;13.09;100.00
65173;BME280;51758;52.218;5.172;2022-11-03T09:44:10;100503.66;;;13.09;100.00
65173;BME280;51758;52.218;5.172;2022-11-03T09:46:39;100499.84;;;13.18;100.00
65173;BME280;51758;52.218;5.172;2022-11-03T09:49:06;100501.06;;;13.16;100.00
65173;BME280;51758;52.218;5.172;2022-11-03T09:51:34;100493.34;;;13.08;100.00
65173;BME280;51758;52.218;5.172;2022-11-03T09:54:03;100486.09;;;13.10;100.00
65173;BME280;51758;52.218;5.172;2022-11-03T09:56:35;100477.88;;;13.26;100.00
65173;BME280;51758;52.218;5.172;2022-11-03T09:59:10;100478.28;;;13.16;100.00
65173;BME280;51758;52.218;5.172;2022-11-03T10:01:42;100471.78;;;13.12;100.00
65173;BME280;51758;52.218;5.172;2022-11-03T10:04:11;100481.09;;;13.15;100.00
65173;BME280;51758;52.218;5.172;2022-11-03T10:06:39;100470.00;;;13.19;100.00
65173;BME280;51758;52.218;5.172;2022-11-03T10:09:11;100469.81;;;13.27;100.00
65173;BME280;51758;52.218;5.172;2022-11-03T10:11:41;100453.25;;;13.20;100.00
65173;BME280;51758;52.218;5.172;2022-11-03T10:14:11;100453.25;;;13.20;100.00
65173;BME280;51758;52.218;5.172;2022-11-03T10:16:42;100461.53;;;13.24;100.00
65173;BME280;51758;52.218;5.172;2022-11-03T10:19:14;100451.44;;;13.21;100.00
65173;BME280;51758;52.218;5.172;2022-11-03T10:21:43;100454.28;;;13.26;100.00
65173;BME280;51758;52.218;5.172;2022-11-03T10:24:11;100445.59;;;13.25;100.00
65173;BME280;51758;52.218;5.172;2022-11-03T10:26:44;100435.31;;;13.24;100.00
65173;BME280;51758;52.218;5.172;2022-11-03T10:29:17;100440.31;;;13.39;100.00
65173;BME280;51758;52.218;5.172;2022-11-03T10:31:51;100433.06;;;13.41;100.00
65173;BME280;51758;52.218;5.172;2022-11-03T10:34:25;100433.47;;;13.38;100.00
65173;BME280;51758;52.218;5.172;2022-11-03T10:37:13;100428.19;;;13.44;100.00
65173;BME280;51758;52.218;5.172;2022-11-03T10:39:43;100421.72;;;13.53;100.00
65173;BME280;51758;52.218;5.172;2022-11-03T10:42:15;100420.13;;;13.52;100.00
65173;BME280;51758;52.218;5.172;2022-11-03T10:44:43;100416.03;;;13.56;100.00
65173;BME280;51758;52.218;5.172;2022-11-03T10:47:25;100403.94;;;13.62;100.00
65173;BME280;51758;52.218;5.172;2022-11-03T10:49:57;100397.47;;;13.65;100.00
65173;BME280;51758;52.218;5.172;2022-11-03T10:52:26;100388.19;;;13.62;100.00
65173;BME280;51758;52.218;5.172;2022-11-03T10:54:57;100371.25;;;13.58;100.00
65173;BME280;51758;52.218;5.172;2022-11-03T10:57:26;100386.13;;;13.71;100.00
65173;BME280;51758;52.218;5.172;2022-11-03T10:59:54;100372.75;;;13.85;100.00
65173;BME280;51758;52.218;5.172;2022-11-03T11:02:24;100369.69;;;13.88;100.00
65173;BME280;51758;52.218;5.172;2022-11-03T11:04:55;100368.91;;;13.81;100.00
65173;BME280;51758;52.218;5.172;2022-11-03T11:07:29;100373.16;;;13.82;100.00
65173;BME280;51758;52.218;5.172;2022-11-03T11:10:04;100356.19;;;13.85;100.00
65173;BME280;51758;52.218;5.172;2022-11-03T11:12:33;100342.06;;;13.86;100.00
65173;BME280;51758;52.218;5.172;2022-11-03T11:15:02;100338.72;;;14.04;100.00
65173;BME280;51758;52.218;5.172;2022-11-03T11:17:42;100344.81;;;13.97;100.00
65173;BME280;51758;52.218;5.172;2022-11-03T11:20:32;100351.06;;;13.96;100.00
65173;BME280;51758;52.218;5.172;2022-11-03T11:26:16;100343.78;;;13.98;100.00
65173;BME280;51758;52.218;5.172;2022-11-03T11:38:58;100323.72;;;14.11;100.00
65173;BME280;51758;52.218;5.172;2022-11-03T11:42:07;100325.88;;;14.20;100.00
65173;BME280;51758;52.218;5.172;2022-11-03T11:44:46;100327.84;;;14.25;100.00
65173;BME280;51758;52.218;5.172;2022-11-03T11:47:21;100306.47;;;14.21;100.00
65173;BME280;51758;52.218;5.172;2022-11-03T11:49:59;100300.31;;;14.34;100.00
65173;BME280;51758;52.218;5.172;2022-11-03T11:52:29;100285.34;;;14.41;100.00
65173;BME280;51758;52.218;5.172;2022-11-03T11:54:58;100290.09;;;14.26;100.00
65173;BME280;51758;52.218;5.172;2022-11-03T11:57:29;100292.06;;;14.30;100.00
65173;BME280;51758;52.218;5.172;2022-11-03T11:59:59;100282.38;;;14.31;100.00
65173;BME280;51758;52.218;5.172;2022-11-03T12:02:29;100271.00;;;14.37;100.00
65173;BME280;51758;52.218;5.172;2022-11-03T12:04:58;100263.31;;;14.35;100.00
65173;BME280;51758;52.218;5.172;2022-11-03T12:07:32;100249.16;;;14.43;100.00
65173;BME280;51758;52.218;5.172;2022-11-03T12:10:07;100254.75;;;14.47;100.00
65173;BME280;51758;52.218;5.172;2022-11-03T12:12:35;100241.38;;;14.55;100.00
65173;BME280;51758;52.218;5.172;2022-11-03T12:15:03;100251.88;;;14.55;100.00
65173;BME280;51758;52.218;5.172;2022-11-03T12:17:31;100235.44;;;14.59;100.00
65173;BME280;51758;52.218;5.172;2022-11-03T12:20:00;100235.59;;;14.64;100.00
65173;BME280;51758;52.218;5.172;2022-11-03T12:22:47;100228.91;;;14.68;100.00
65173;BME280;51758;52.218;5.172;2022-11-03T12:25:34;100220.69;;;14.58;100.00
65173;BME280;51758;52.218;5.172;2022-11-03T12:28:02;100219.25;;;14.62;100.00
65173;BME280;51758;52.218;5.172;2022-11-03T12:30:30;100222.09;;;14.61;100.00
65173;BME280;51758;52.218;5.172;2022-11-03T12:33:05;100212.06;;;14.69;100.00
65173;BME280;51758;52.218;5.172;2022-11-03T12:35:33;100202.91;;;14.79;100.00
65173;BME280;51758;52.218;5.172;2022-11-03T12:38:00;100208.59;;;14.76;100.00
65173;BME280;51758;52.218;5.172;2022-11-03T12:40:28;100203.97;;;14.71;100.00
65173;BME280;51758;52.218;5.172;2022-11-03T12:42:57;100200.44;;;14.65;100.00
65173;BME280;51758;52.218;5.172;2022-11-03T12:45:25;100190.72;;;14.66;100.00
65173;BME280;51758;52.218;5.172;2022-11-03T12:47:52;100180.44;;;14.64;100.00
65173;BME280;51758;52.218;5.172;2022-11-03T12:50:20;100166.00;;;14.55;100.00
65173;BME280;51758;52.218;5.172;2022-11-03T12:52:47;100174.59;;;14.62;100.00
65173;BME280;51758;52.218;5.172;2022-11-03T12:55:15;100172.06;;;14.56;100.00
65173;BME280;51758;52.218;5.172;2022-11-03T12:57:43;100157.44;;;14.60;100.00
65173;BME280;51758;52.218;5.172;2022-11-03T13:00:14;100158.88;;;14.74;100.00
65173;BME280;51758;52.218;5.172;2022-11-03T13:02:43;100151.63;;;14.88;100.00
65173;BME280;51758;52.218;5.172;2022-11-03T13:05:11;100145.84;;;14.97;100.00
65173;BME280;51758;52.218;5.172;2022-11-03T13:07:40;100138.16;;;14.96;100.00
65173;BME280;51758;52.218;5.172;2022-11-03T13:10:08;100131.13;;;15.08;100.00
65173;BME280;51758;52.218;5.172;2022-11-03T13:12:36;100124.78;;;15.27;100.00
65173;BME280;51758;52.218;5.172;2022-11-03T13:15:07;100118.53;;;15.40;100.00
65173;BME280;51758;52.218;5.172;2022-11-03T13:17:38;100107.63;;;15.36;100.00